13 Max
8 km/h
4 Mini

LFMY 080600Z AUTO 00000KT CAVOK 05/02 Q1026 NOSIG

TAF LFMY 080454Z 0803/0903 VRB02KT CAVOK BECMG 0808/0810 19012KT BECMG 0817/0819 VRB02KT